Noma, Florida
Current Conditions -  °F | °C
As of 10:58 PM on Saturday 25 Oct 2014 (Local Time) from KOZR Reporting Station
Clear Clear  
Wind Chill: 58°   Ceiling: Unl
Heat Index: 58°   Visibility: 10mi
Dew Point: 51°   Wind: 5mph
Humidity: 79%   Direction: 310°NW
Pressure: 30.05"   Gusts: NA
Location:  30.98°N, 85.62°W
Report Text: KOZR 260358Z AUTO 31004KT 10SM CLR 14/11 A3005 RMK AO2 SLP177 T01420106
Loading
Personal Weather Stations






























Interactive Weather Map
Tropical Storm Tracking
New forecast layout! Learn more

10-Day Weather Forecast

Advertisements
Track Severe Weather on mobile